createdAt,value
2022-11-17T00:00:06.385Z,6.87
2022-11-17T00:05:11.129Z,6.88
2022-11-17T00:10:13.454Z,6.94
2022-11-17T00:15:15.295Z,6.95
2022-11-17T00:20:35.586Z,6.98
2022-11-17T00:25:37.550Z,6.91
2022-11-17T00:30:57.780Z,6.95
2022-11-17T00:35:59.591Z,6.91
2022-11-17T00:41:01.486Z,6.94
2022-11-17T00:46:03.200Z,6.92
2022-11-17T00:51:05.819Z,6.89
2022-11-17T00:56:07.578Z,6.89
2022-11-17T01:01:09.573Z,6.86
2022-11-17T01:06:14.154Z,6.90
2022-11-17T01:11:18.702Z,6.93
2022-11-17T01:16:21.235Z,7.00
2022-11-17T01:21:25.212Z,7.12
2022-11-17T01:26:30.628Z,7.24
2022-11-17T01:31:35.355Z,7.34
2022-11-17T01:36:58.511Z,7.26
2022-11-17T01:42:05.245Z,7.24
2022-11-17T01:47:17.580Z,7.24
2022-11-17T01:52:19.390Z,7.28
2022-11-17T01:57:32.399Z,7.32
2022-11-17T02:02:35.772Z,7.43
2022-11-17T02:07:40.641Z,7.39
2022-11-17T02:12:43.633Z,7.46
2022-11-17T02:17:45.453Z,7.47
2022-11-17T02:22:59.533Z,7.53
2022-11-17T02:28:15.229Z,7.52
2022-11-17T02:33:35.276Z,7.46
2022-11-17T02:38:49.099Z,7.47
2022-11-17T02:44:09.118Z,7.48
2022-11-17T02:49:38.361Z,7.41
2022-11-17T02:54:40.067Z,7.38
2022-11-17T02:59:48.080Z,7.47
2022-11-17T03:05:05.513Z,7.45
2022-11-17T03:10:13.539Z,7.48
2022-11-17T03:15:24.629Z,7.44
2022-11-17T03:20:34.665Z,7.37
2022-11-17T03:25:38.177Z,7.44
2022-11-17T03:30:43.820Z,7.48
2022-11-17T03:36:00.911Z,7.48
2022-11-17T03:41:05.589Z,7.40
2022-11-17T03:46:13.025Z,7.35
2022-11-17T03:51:21.893Z,7.28
2022-11-17T03:56:50.746Z,7.30
2022-11-17T04:01:52.976Z,7.35
2022-11-17T04:06:54.727Z,7.32
2022-11-17T04:12:15.002Z,7.33
2022-11-17T04:17:16.639Z,7.31
2022-11-17T04:22:18.328Z,7.33
2022-11-17T04:27:38.929Z,7.36
2022-11-17T04:32:40.657Z,7.41
2022-11-17T04:37:42.372Z,7.39
2022-11-17T04:42:43.986Z,7.50
2022-11-17T04:47:45.628Z,7.44
2022-11-17T04:52:47.444Z,7.49
2022-11-17T04:57:49.103Z,7.45
2022-11-17T05:02:50.959Z,7.47
2022-11-17T05:07:52.651Z,7.51
2022-11-17T05:13:12.777Z,7.58
2022-11-17T05:18:14.446Z,7.61
2022-11-17T05:23:34.727Z,7.65
2022-11-17T05:28:36.581Z,7.67
2022-11-17T05:33:38.635Z,7.69
2022-11-17T05:38:41.208Z,7.64
2022-11-17T05:43:43.438Z,7.42
2022-11-17T05:48:46.330Z,7.50
2022-11-17T05:53:48.397Z,7.53
2022-11-17T05:58:54.123Z,7.52
2022-11-17T06:04:02.169Z,7.56
2022-11-17T06:09:04.529Z,7.59
2022-11-17T06:14:06.405Z,7.62
2022-11-17T06:19:16.208Z,7.65
2022-11-17T06:24:18.767Z,7.73
2022-11-17T06:29:20.540Z,8.19
2022-11-17T06:34:22.261Z,8.40
2022-11-17T06:39:24.056Z,8.64
2022-11-17T06:44:25.712Z,8.46
2022-11-17T06:49:27.434Z,8.61
2022-11-17T06:54:29.176Z,8.52
2022-11-17T06:59:31.031Z,8.48
2022-11-17T07:04:32.796Z,8.29
2022-11-17T07:09:34.491Z,8.24
2022-11-17T07:14:36.149Z,8.18
2022-11-17T07:19:38.243Z,8.14
2022-11-17T07:24:40.295Z,8.23
2022-11-17T07:29:41.923Z,8.61
2022-11-17T07:34:43.584Z,8.82
2022-11-17T07:39:45.263Z,8.72
2022-11-17T07:44:46.943Z,8.60
2022-11-17T07:49:48.860Z,8.63
2022-11-17T07:54:50.536Z,8.70
2022-11-17T07:59:52.191Z,8.66
2022-11-17T08:04:53.835Z,8.71
2022-11-17T08:09:55.461Z,8.61
2022-11-17T08:14:57.150Z,8.43
2022-11-17T08:19:58.842Z,8.35
2022-11-17T08:25:00.512Z,8.36
2022-11-17T08:30:02.171Z,8.40
2022-11-17T08:35:06.797Z,8.45
2022-11-17T08:40:09.236Z,8.45
2022-11-17T08:45:11.111Z,8.54
2022-11-17T08:50:13.995Z,8.62
2022-11-17T08:55:15.847Z,8.70
2022-11-17T09:00:20.635Z,8.80
2022-11-17T09:05:23.338Z,8.86
2022-11-17T09:10:25.138Z,8.93
2022-11-17T09:15:26.857Z,8.95
2022-11-17T09:20:29.008Z,9.02
2022-11-17T09:25:30.825Z,9.02
2022-11-17T09:30:32.493Z,9.08
2022-11-17T09:35:34.218Z,9.17
2022-11-17T09:40:38.555Z,9.27
2022-11-17T09:45:40.600Z,9.32
2022-11-17T09:50:44.964Z,9.35
2022-11-17T09:55:50.239Z,9.38
2022-11-17T10:00:53.734Z,9.38
2022-11-17T10:05:56.329Z,9.49
2022-11-17T10:10:57.926Z,9.61
2022-11-17T10:16:07.886Z,9.68
2022-11-17T10:21:09.663Z,9.78
2022-11-17T10:26:14.024Z,9.90
2022-11-17T10:31:17.687Z,9.99
2022-11-17T10:36:26.652Z,10.01
2022-11-17T10:41:42.644Z,10.01
2022-11-17T10:47:00.560Z,10.00
2022-11-17T10:52:16.346Z,10.00
2022-11-17T10:57:23.800Z,9.98
2022-11-17T11:02:38.174Z,10.03
2022-11-17T11:07:40.881Z,10.11
2022-11-17T11:12:53.579Z,10.15
2022-11-17T11:17:55.234Z,10.26
2022-11-17T11:22:59.822Z,10.43
2022-11-17T11:28:35.483Z,10.67
2022-11-17T11:33:41.380Z,10.92
2022-11-17T11:39:05.179Z,11.09
2022-11-17T11:44:25.596Z,11.22
2022-11-17T11:50:00.944Z,11.40
2022-11-17T11:55:18.915Z,11.65
2022-11-17T12:00:20.864Z,11.84
2022-11-17T12:05:38.903Z,11.96
2022-11-17T12:10:58.884Z,11.98
2022-11-17T12:16:17.974Z,11.90
2022-11-17T12:21:30.451Z,11.91
2022-11-17T12:26:33.736Z,11.99
2022-11-17T12:31:44.100Z,12.07
2022-11-17T12:37:14.825Z,12.10
2022-11-17T12:42:16.534Z,12.15
2022-11-17T12:47:24.514Z,12.21
2022-11-17T12:52:40.566Z,12.31
2022-11-17T12:57:45.667Z,12.47
2022-11-17T13:03:19.251Z,12.68
2022-11-17T13:08:23.690Z,12.81
2022-11-17T13:13:25.368Z,12.79
2022-11-17T13:18:33.049Z,12.81
2022-11-17T13:23:44.457Z,12.84
2022-11-17T13:28:47.573Z,12.79
2022-11-17T13:34:17.684Z,12.76
2022-11-17T13:39:24.246Z,12.72
2022-11-17T13:44:28.945Z,12.70
2022-11-17T13:49:34.611Z,12.73
2022-11-17T13:54:36.337Z,12.78
2022-11-17T13:59:39.086Z,12.83
2022-11-17T14:04:41.588Z,12.86
2022-11-17T14:09:43.285Z,12.87
2022-11-17T14:14:45.325Z,12.88
2022-11-17T14:19:47.793Z,12.84
2022-11-17T14:24:50.086Z,12.80
2022-11-17T14:29:51.824Z,12.71
2022-11-17T14:34:53.530Z,12.58
2022-11-17T14:39:55.472Z,12.36
2022-11-17T14:44:57.207Z,12.13
2022-11-17T14:49:58.891Z,11.88
2022-11-17T14:55:00.887Z,11.68
2022-11-17T15:00:04.150Z,11.36
2022-11-17T15:05:06.983Z,11.24
2022-11-17T15:10:08.912Z,11.10
2022-11-17T15:15:10.768Z,11.02
2022-11-17T15:20:12.584Z,11.02
2022-11-17T15:25:14.336Z,11.03
2022-11-17T15:30:16.492Z,10.96
2022-11-17T15:35:18.204Z,10.95
2022-11-17T15:40:20.079Z,10.93
2022-11-17T15:45:21.948Z,10.82
2022-11-17T15:50:23.656Z,10.69
2022-11-17T15:55:25.442Z,10.58
2022-11-17T16:00:27.071Z,10.41
2022-11-17T16:05:28.757Z,10.26
2022-11-17T16:10:30.349Z,10.20
2022-11-17T16:15:32.013Z,10.13
2022-11-17T16:20:33.769Z,10.13
2022-11-17T16:25:46.778Z,10.04
2022-11-17T16:30:48.347Z,10.04
2022-11-17T16:35:50.238Z,9.97
2022-11-17T16:40:52.002Z,10.08
2022-11-17T16:45:53.688Z,10.27
2022-11-17T16:50:55.352Z,10.22
2022-11-17T16:56:03.570Z,10.04
2022-11-17T17:01:12.794Z,9.98
2022-11-17T17:06:16.948Z,9.93
2022-11-17T17:11:20.080Z,9.77
2022-11-17T17:16:22.658Z,9.46
2022-11-17T17:21:24.424Z,9.38
2022-11-17T17:26:28.695Z,9.36
2022-11-17T17:31:33.228Z,9.40
2022-11-17T17:36:36.425Z,9.39
2022-11-17T17:41:40.148Z,9.33
2022-11-17T17:46:42.856Z,9.34
2022-11-17T17:51:44.822Z,9.24
2022-11-17T17:56:47.396Z,9.18
2022-11-17T18:01:49.602Z,9.17
2022-11-17T18:06:51.420Z,9.27
2022-11-17T18:11:53.239Z,9.37
2022-11-17T18:16:55.124Z,9.52
2022-11-17T18:21:56.786Z,9.61
2022-11-17T18:26:58.568Z,9.78
2022-11-17T18:32:00.314Z,9.91
2022-11-17T18:37:02.158Z,10.00
2022-11-17T18:42:04.324Z,10.04
2022-11-17T18:47:06.071Z,10.04
2022-11-17T18:52:09.744Z,10.04
2022-11-17T18:57:11.364Z,10.07
2022-11-17T19:02:13.093Z,10.09
2022-11-17T19:07:15.417Z,10.10
2022-11-17T19:12:18.907Z,10.14
2022-11-17T19:17:21.874Z,10.19
2022-11-17T19:22:23.792Z,10.20
2022-11-17T19:27:25.497Z,10.22
2022-11-17T19:32:27.159Z,10.26
2022-11-17T19:37:28.990Z,10.25
2022-11-17T19:42:30.697Z,10.25
2022-11-17T19:47:32.653Z,10.27
2022-11-17T19:52:34.707Z,10.27
2022-11-17T19:57:36.527Z,10.20
2022-11-17T20:02:38.156Z,10.18
2022-11-17T20:07:39.838Z,10.19
2022-11-17T20:12:43.319Z,10.22
2022-11-17T20:17:45.000Z,10.23
2022-11-17T20:22:46.960Z,10.25
2022-11-17T20:27:48.606Z,10.31
2022-11-17T20:32:50.279Z,10.37
2022-11-17T20:37:51.905Z,10.42
2022-11-17T20:42:53.576Z,10.44
2022-11-17T20:47:55.626Z,10.44
2022-11-17T20:52:57.322Z,10.51
2022-11-17T20:57:59.110Z,10.57
2022-11-17T21:03:00.814Z,10.65
2022-11-17T21:08:02.518Z,10.73
2022-11-17T21:13:04.178Z,10.75
2022-11-17T21:18:23.965Z,10.77
2022-11-17T21:23:27.243Z,10.73
2022-11-17T21:28:29.522Z,10.61
2022-11-17T21:33:31.223Z,10.65
2022-11-17T21:38:33.286Z,10.69
2022-11-17T21:43:39.674Z,10.82
2022-11-17T21:48:42.182Z,10.93
2022-11-17T21:53:44.601Z,11.01
2022-11-17T21:58:46.314Z,11.01
2022-11-17T22:03:48.059Z,10.90
2022-11-17T22:08:50.762Z,10.80
2022-11-17T22:13:52.441Z,10.84
2022-11-17T22:18:54.569Z,10.87
2022-11-17T22:23:56.611Z,10.87
2022-11-17T22:28:59.427Z,10.81
2022-11-17T22:34:01.016Z,10.79
2022-11-17T22:39:03.625Z,10.70
2022-11-17T22:44:06.360Z,10.68
2022-11-17T22:49:08.101Z,10.68
2022-11-17T22:54:10.081Z,10.68
2022-11-17T22:59:11.992Z,10.65
2022-11-17T23:04:14.084Z,10.59
2022-11-17T23:09:16.042Z,10.61
2022-11-17T23:14:18.060Z,10.53
2022-11-17T23:19:20.084Z,10.37
2022-11-17T23:24:22.097Z,10.33
2022-11-17T23:29:23.787Z,10.39
2022-11-17T23:34:27.434Z,10.34
2022-11-17T23:39:29.252Z,10.31
2022-11-17T23:44:30.972Z,10.28
2022-11-17T23:49:32.733Z,10.24
2022-11-17T23:54:34.486Z,10.15
2022-11-17T23:59:36.506Z,10.07
